Time;durP1;ratioP1;P1;durP2;ratioP2;P2;SDS_P1;SDS_P2;PMS_P1;PMS_P2;Temp;Humidity;BMP_temperature;BMP_pressure;BME280_temperature;BME280_humidity;BME280_pressure;Samples;Min_cycle;Max_cycle;Signal;HPM_P1;HPM_P2
2023/09/08 00:00:52;;;;;;;11.73;9.00;;;21.40;93.10;;;;;;5029041;28;20459;-40
2023/09/08 00:03:21;;;;;;;9.57;8.67;;;21.40;93.20;;;;;;5029157;28;20490;-38
2023/09/08 00:05:48;;;;;;;11.10;8.60;;;21.30;93.30;;;;;;5029870;28;20514;-40
2023/09/08 00:08:15;;;;;;;10.33;8.10;;;21.30;93.40;;;;;;5018371;28;20447;-38
2023/09/08 00:10:41;;;;;;;10.73;7.97;;;21.30;93.50;;;;;;5015135;28;20486;-37
2023/09/08 00:13:09;;;;;;;9.17;8.20;;;21.20;93.50;;;;;;5014899;28;20440;-39
2023/09/08 00:15:37;;;;;;;10.83;8.97;;;21.20;93.60;;;;;;5015085;28;20439;-40
2023/09/08 00:18:04;;;;;;;9.97;7.53;;;21.10;93.60;;;;;;5015966;28;20936;-44
2023/09/08 00:20:31;;;;;;;9.47;7.80;;;21.10;93.60;;;;;;5015632;28;20439;-38
2023/09/08 00:22:57;;;;;;;10.03;8.17;;;21.20;93.80;;;;;;5014472;28;20443;-43
2023/09/08 00:25:24;;;;;;;9.10;7.70;;;21.10;93.80;;;;;;5016036;28;20451;-39
2023/09/08 00:27:51;;;;;;;9.37;8.43;;;21.10;93.90;;;;;;5016275;28;20793;-38
2023/09/08 00:30:19;;;;;;;8.20;7.40;;;21.20;94.00;;;;;;5016130;28;20516;-38
2023/09/08 00:32:45;;;;;;;9.30;8.40;;;21.00;93.90;;;;;;5015926;28;20439;-40
2023/09/08 00:35:13;;;;;;;9.77;8.23;;;21.00;94.00;;;;;;5015671;28;20435;-40
2023/09/08 00:37:40;;;;;;;13.73;9.50;;;21.00;94.00;;;;;;5015843;28;20443;-42
2023/09/08 00:40:08;;;;;;;10.93;8.30;;;21.00;94.10;;;;;;5015011;28;20922;-39
2023/09/08 00:42:35;;;;;;;17.57;9.03;;;20.90;94.10;;;;;;5013082;28;20455;-40
2023/09/08 00:45:02;;;;;;;10.70;8.00;;;20.90;94.10;;;;;;5014642;28;20562;-37
2023/09/08 00:47:30;;;;;;;9.97;8.20;;;20.90;94.20;;;;;;5013882;28;20458;-38
2023/09/08 00:49:57;;;;;;;10.40;8.77;;;21.00;94.30;;;;;;5014415;28;20456;-39
2023/09/08 00:52:24;;;;;;;9.67;8.77;;;20.90;94.30;;;;;;5013921;28;20799;-38
2023/09/08 00:54:51;;;;;;;9.87;8.90;;;20.80;94.30;;;;;;5013210;28;20447;-40
2023/09/08 00:57:17;;;;;;;8.67;7.77;;;20.80;94.30;;;;;;5012249;28;20446;-40
2023/09/08 00:59:45;;;;;;;9.93;8.57;;;20.80;94.40;;;;;;5013409;28;20838;-38
2023/09/08 01:02:12;;;;;;;9.53;8.50;;;20.80;94.50;;;;;;5013440;28;20443;-39
2023/09/08 01:04:40;;;;;;;9.20;8.03;;;20.70;94.50;;;;;;5013221;28;20494;-38
2023/09/08 01:07:07;;;;;;;9.13;8.33;;;20.70;94.60;;;;;;5013519;28;20960;-38
2023/09/08 01:09:35;;;;;;;10.60;8.37;;;20.70;94.70;;;;;;5013861;28;20491;-38
2023/09/08 01:12:03;;;;;;;8.20;7.47;;;20.60;94.70;;;;;;5012537;28;20980;-38
2023/09/08 01:14:30;;;;;;;10.53;9.43;;;20.60;94.80;;;;;;5011987;28;20447;-40
2023/09/08 01:16:57;;;;;;;8.97;8.03;;;20.60;94.90;;;;;;5017364;28;20441;-40
2023/09/08 01:19:24;;;;;;;9.37;8.40;;;20.60;95.00;;;;;;5012218;28;20479;-37
2023/09/08 01:22:10;;;;;;;9.53;8.50;;;20.50;95.00;;;;;;5012643;28;20439;-42
2023/09/08 01:25:07;;;;;;;8.90;8.00;;;20.50;95.10;;;;;;5013515;28;20864;-37
2023/09/08 01:27:38;;;;;;;9.80;8.80;;;20.50;95.10;;;;;;5014355;28;20522;-37
2023/09/08 01:30:06;;;;;;;10.90;7.77;;;20.40;95.10;;;;;;5014569;28;20479;-40
2023/09/08 01:32:33;;;;;;;14.13;9.43;;;20.40;95.20;;;;;;5017033;28;20443;-40
2023/09/08 01:35:01;;;;;;;8.90;8.00;;;20.40;95.30;;;;;;5016219;28;20434;-40
2023/09/08 01:37:28;;;;;;;11.33;8.47;;;20.40;95.40;;;;;;5017182;28;20438;-39
2023/09/08 01:39:55;;;;;;;9.97;8.77;;;20.40;95.40;;;;;;5019851;28;20492;-39
2023/09/08 01:42:21;;;;;;;10.67;8.70;;;20.50;95.60;;;;;;5020169;28;20480;-41
2023/09/08 01:44:49;;;;;;;10.37;7.73;;;20.30;95.50;;;;;;5017449;28;20562;-38
2023/09/08 01:47:16;;;;;;;9.17;8.27;;;20.30;95.60;;;;;;5012294;28;20445;-39
2023/09/08 01:49:44;;;;;;;9.20;8.27;;;20.30;95.60;;;;;;5013420;28;20930;-38
2023/09/08 01:52:11;;;;;;;12.40;9.03;;;20.30;95.60;;;;;;5013050;28;20441;-39
2023/09/08 01:54:37;;;;;;;8.90;8.00;;;20.30;95.70;;;;;;5013045;28;20433;-41
2023/09/08 01:57:04;;;;;;;9.53;8.17;;;20.30;95.80;;;;;;5012991;28;20473;-39
2023/09/08 01:59:31;;;;;;;9.87;8.43;;;20.20;95.70;;;;;;5011768;28;20469;-38
2023/09/08 02:01:59;;;;;;;8.70;7.90;;;20.20;95.80;;;;;;5011937;28;20447;-41
2023/09/08 02:04:25;;;;;;;11.30;9.43;;;20.20;95.80;;;;;;5012770;28;20564;-38
2023/09/08 02:06:52;;;;;;;22.43;11.53;;;20.20;95.90;;;;;;5013510;28;20430;-40
2023/09/08 02:09:20;;;;;;;11.40;9.23;;;20.20;95.90;;;;;;5012171;28;20838;-39
2023/09/08 02:11:46;;;;;;;8.93;8.13;;;20.20;96.00;;;;;;5013299;28;20461;-39
2023/09/08 02:14:13;;;;;;;10.63;9.50;;;20.20;96.10;;;;;;5011850;28;20445;-38
2023/09/08 02:16:40;;;;;;;9.53;8.63;;;20.20;96.10;;;;;;5014066;28;20519;-42
2023/09/08 02:19:08;;;;;;;9.80;8.47;;;20.10;96.10;;;;;;5013847;28;20493;-38
2023/09/08 02:21:34;;;;;;;11.67;9.90;;;20.10;96.10;;;;;;5014124;28;20446;-40
2023/09/08 02:24:01;;;;;;;10.83;9.83;;;20.10;96.20;;;;;;5014822;28;20859;-39
2023/09/08 02:26:29;;;;;;;13.30;9.50;;;20.10;96.30;;;;;;5013474;28;20540;-39
2023/09/08 02:28:55;;;;;;;10.90;9.30;;;20.10;96.30;;;;;;5013558;28;20490;-39
2023/09/08 02:31:22;;;;;;;10.90;8.77;;;20.10;96.40;;;;;;5015021;28;20462;-42
2023/09/08 02:33:49;;;;;;;12.63;10.70;;;20.10;96.40;;;;;;5014157;28;20453;-40
2023/09/08 02:36:17;;;;;;;9.20;8.30;;;20.10;96.50;;;;;;5013173;28;20467;-37
2023/09/08 02:38:44;;;;;;;10.03;8.93;;;20.10;96.50;;;;;;5012055;28;20475;-36
2023/09/08 02:41:11;;;;;;;10.90;9.80;;;20.10;96.50;;;;;;5011948;28;20449;-39
2023/09/08 02:43:37;;;;;;;10.57;9.57;;;20.00;96.50;;;;;;5010836;28;20450;-36
2023/09/08 02:46:04;;;;;;;10.30;9.30;;;20.00;96.60;;;;;;5015116;28;21014;-37
2023/09/08 02:48:31;;;;;;;11.93;10.43;;;20.00;96.60;;;;;;5014979;28;20472;-38
2023/09/08 02:50:58;;;;;;;11.07;9.43;;;20.00;96.70;;;;;;5015097;28;20449;-38
2023/09/08 02:53:28;;;;;;;11.90;10.17;;;20.00;96.70;;;;;;5016532;28;20437;-40
2023/09/08 02:55:55;;;;;;;13.00;10.07;;;20.00;96.80;;;;;;5014969;28;20443;-39
2023/09/08 02:58:22;;;;;;;11.10;10.00;;;19.90;96.80;;;;;;5015366;28;20477;-39
2023/09/08 03:00:49;;;;;;;10.80;9.70;;;20.00;97.20;;;;;;5016069;28;20436;-41
2023/09/08 03:03:15;;;;;;;10.57;9.50;;;19.80;96.90;;;;;;5014478;28;20461;-38
2023/09/08 03:05:42;;;;;;;12.17;10.20;;;20.00;97.00;;;;;;5014246;28;21067;-36
2023/09/08 03:08:09;;;;;;;12.50;11.07;;;19.80;97.00;;;;;;5014392;28;20448;-39
2023/09/08 03:10:37;;;;;;;11.50;9.57;;;19.90;97.20;;;;;;5016044;28;20447;-40
2023/09/08 03:13:04;;;;;;;11.70;9.83;;;19.80;97.20;;;;;;5014245;28;20444;-40
2023/09/08 03:15:31;;;;;;;12.77;9.60;;;19.80;97.20;;;;;;5015819;28;20831;-40
2023/09/08 03:17:59;;;;;;;12.20;9.53;;;19.80;97.60;;;;;;5014455;28;20994;-40
2023/09/08 03:20:26;;;;;;;11.63;10.43;;;19.70;97.30;;;;;;5014237;28;20478;-40
2023/09/08 03:22:52;;;;;;;11.97;10.10;;;19.70;97.40;;;;;;5013900;28;20449;-39
2023/09/08 03:25:19;;;;;;;10.70;9.70;;;19.70;97.40;;;;;;5014209;28;20517;-42
2023/09/08 03:27:47;;;;;;;10.60;9.60;;;19.70;97.50;;;;;;5015757;28;20437;-39
2023/09/08 03:30:14;;;;;;;11.57;9.80;;;19.70;97.50;;;;;;5015283;28;20487;-39
2023/09/08 03:32:41;;;;;;;9.80;8.80;;;19.70;97.60;;;;;;5015498;28;20475;-43
2023/09/08 03:35:09;;;;;;;14.13;11.00;;;19.60;97.70;;;;;;5016337;28;20444;-40
2023/09/08 03:37:36;;;;;;;17.87;11.43;;;19.60;97.80;;;;;;5017529;28;20463;-40
2023/09/08 03:40:05;;;;;;;13.87;10.90;;;19.40;97.80;;;;;;5019519;28;20556;-38
2023/09/08 03:42:32;;;;;;;10.97;9.87;;;19.60;98.00;;;;;;5017818;28;20450;-39
2023/09/08 03:45:00;;;;;;;12.63;9.97;;;19.50;98.00;;;;;;5019477;28;20474;-39
2023/09/08 03:47:26;;;;;;;11.13;9.83;;;19.60;98.20;;;;;;5020800;28;20437;-39
2023/09/08 03:49:53;;;;;;;12.50;10.90;;;19.50;98.20;;;;;;5019405;28;20550;-39
2023/09/08 03:52:20;;;;;;;12.90;10.80;;;19.20;98.10;;;;;;5018077;28;20460;-42
2023/09/08 03:54:47;;;;;;;13.10;11.80;;;19.50;98.40;;;;;;5019163;28;20952;-40
2023/09/08 03:57:13;;;;;;;12.00;10.30;;;19.40;98.40;;;;;;5019096;28;20434;-40
2023/09/08 03:59:40;;;;;;;12.30;9.93;;;19.40;98.50;;;;;;5023120;28;20492;-40
2023/09/08 04:02:08;;;;;;;12.77;10.80;;;19.40;98.50;;;;;;5022516;28;20970;-39
2023/09/08 04:04:35;;;;;;;13.60;11.07;;;19.40;98.50;;;;;;5021352;28;20469;-39
2023/09/08 04:07:01;;;;;;;12.73;10.80;;;19.50;98.70;;;;;;5018764;28;20499;-39
2023/09/08 04:09:28;;;;;;;14.10;10.83;;;19.30;98.60;;;;;;5019099;28;20553;-43
2023/09/08 04:11:55;;;;;;;15.40;11.20;;;19.30;98.70;;;;;;5021237;28;20441;-39
2023/09/08 04:14:23;;;;;;;14.00;12.60;;;19.40;98.80;;;;;;5016059;28;20974;-41
2023/09/08 04:16:50;;;;;;;12.47;11.13;;;19.30;98.80;;;;;;5014243;28;20911;-38
2023/09/08 04:19:18;;;;;;;12.10;10.97;;;19.30;98.90;;;;;;5014048;28;20471;-41
2023/09/08 04:21:44;;;;;;;13.20;11.80;;;19.30;98.90;;;;;;5014885;28;20873;-41
2023/09/08 04:24:11;;;;;;;14.83;12.47;;;19.30;99.00;;;;;;5014331;28;20920;-39
2023/09/08 04:26:38;;;;;;;13.13;11.10;;;19.30;99.00;;;;;;5013584;28;20511;-39
2023/09/08 04:29:05;;;;;;;13.20;11.90;;;19.30;99.10;;;;;;5013259;28;20477;-43
2023/09/08 04:31:31;;;;;;;13.53;10.93;;;19.30;99.20;;;;;;5013832;28;20465;-39
2023/09/08 04:33:58;;;;;;;13.17;10.73;;;19.30;99.20;;;;;;5014501;28;20432;-37
2023/09/08 04:36:26;;;;;;;12.87;11.43;;;19.20;99.30;;;;;;5013470;28;20490;-41
2023/09/08 04:38:52;;;;;;;13.97;11.10;;;19.20;99.30;;;;;;5013842;28;20508;-42
2023/09/08 04:41:19;;;;;;;14.00;11.70;;;19.20;99.30;;;;;;5016991;28;20431;-39
2023/09/08 04:43:46;;;;;;;11.17;10.03;;;19.20;99.40;;;;;;5013356;28;20542;-38
2023/09/08 04:46:12;;;;;;;14.40;12.40;;;19.20;99.50;;;;;;5015025;28;20526;-39
2023/09/08 04:48:39;;;;;;;18.80;12.47;;;19.20;99.50;;;;;;5014061;28;21055;-41
2023/09/08 04:51:06;;;;;;;13.50;11.83;;;19.20;99.50;;;;;;5014188;28;20454;-39
2023/09/08 04:53:36;;;;;;;12.83;11.53;;;19.20;99.60;;;;;;5013304;28;20456;-38
2023/09/08 04:56:03;;;;;;;13.73;10.90;;;19.30;99.70;;;;;;5014122;28;20969;-38
2023/09/08 04:58:31;;;;;;;15.60;12.47;;;19.20;99.70;;;;;;5014445;28;20544;-40
2023/09/08 05:00:58;;;;;;;12.90;11.50;;;19.20;99.70;;;;;;5014370;28;20463;-38
2023/09/08 05:03:25;;;;;;;18.53;12.63;;;19.30;99.80;;;;;;5013978;28;20970;-38
2023/09/08 05:05:52;;;;;;;21.33;12.13;;;19.30;99.90;;;;;;5014351;28;20903;-39
2023/09/08 05:08:19;;;;;;;16.93;11.57;;;19.20;99.90;;;;;;5016447;28;20912;-43
2023/09/08 05:10:47;;;;;;;14.40;12.70;;;19.30;99.90;;;;;;5013511;28;20468;-39
2023/09/08 05:13:14;;;;;;;13.30;12.00;;;19.30;99.90;;;;;;5012758;28;20472;-40
2023/09/08 05:15:42;;;;;;;12.83;11.50;;;19.30;99.90;;;;;;5013175;28;20447;-39
2023/09/08 05:18:09;;;;;;;14.17;12.70;;;19.30;99.90;;;;;;5014181;28;20465;-42
2023/09/08 05:20:36;;;;;;;13.17;11.77;;;19.40;99.90;;;;;;5014422;28;20436;-40
2023/09/08 05:23:02;;;;;;;13.80;12.30;;;19.30;99.90;;;;;;5013706;28;20433;-40
2023/09/08 05:25:29;;;;;;;12.07;10.87;;;19.30;99.90;;;;;;5012945;28;20485;-46
2023/09/08 05:27:57;;;;;;;12.17;10.97;;;19.30;99.90;;;;;;5016184;28;20463;-40
2023/09/08 05:30:24;;;;;;;15.03;11.57;;;19.30;99.90;;;;;;5012987;28;20485;-41
2023/09/08 05:32:51;;;;;;;12.13;11.03;;;19.30;99.90;;;;;;5013625;28;20460;-39
2023/09/08 05:35:17;;;;;;;13.00;11.70;;;19.40;99.90;;;;;;5014285;28;20506;-42
2023/09/08 05:37:44;;;;;;;20.27;13.23;;;19.40;99.90;;;;;;5012487;28;20461;-38
2023/09/08 05:40:11;;;;;;;13.27;11.87;;;19.50;99.90;;;;;;5012872;28;20857;-40
2023/09/08 05:42:38;;;;;;;17.20;12.90;;;19.60;99.90;;;;;;5014006;28;20435;-52
2023/09/08 05:45:07;;;;;;;18.03;11.73;;;19.60;99.90;;;;;;5013248;28;20581;-39
2023/09/08 05:47:35;;;;;;;11.87;10.67;;;19.70;99.90;;;;;;5012528;28;20952;-39
2023/09/08 05:50:02;;;;;;;14.50;12.00;;;19.80;99.90;;;;;;5014233;28;20447;-40
2023/09/08 05:52:29;;;;;;;15.40;11.70;;;19.90;99.90;;;;;;5011876;28;20450;-40
2023/09/08 05:54:56;;;;;;;18.40;10.97;;;20.00;99.80;;;;;;5011930;28;20547;-40
2023/09/08 05:57:23;;;;;;;19.40;11.40;;;20.00;99.70;;;;;;5012130;28;20485;-40
2023/09/08 05:59:50;;;;;;;13.40;12.10;;;20.10;99.60;;;;;;5014571;28;20819;-39
2023/09/08 06:02:18;;;;;;;12.37;11.07;;;20.20;99.50;;;;;;5013096;28;20540;-48
2023/09/08 06:04:45;;;;;;;13.83;11.27;;;20.30;99.80;;;;;;5013889;28;20930;-38
2023/09/08 06:07:12;;;;;;;12.70;11.40;;;20.30;99.40;;;;;;5012200;28;20993;-41
2023/09/08 06:09:39;;;;;;;17.80;12.13;;;20.40;99.30;;;;;;5013738;28;20487;-39
2023/09/08 06:12:06;;;;;;;12.00;10.80;;;20.40;99.10;;;;;;5013649;28;20457;-39
2023/09/08 06:14:33;;;;;;;18.57;11.30;;;20.50;99.00;;;;;;5013851;28;20498;-39
2023/09/08 06:17:00;;;;;;;12.80;11.63;;;20.60;99.00;;;;;;5012488;28;20980;-39
2023/09/08 06:19:28;;;;;;;13.43;11.53;;;20.60;98.80;;;;;;5014525;28;20555;-41
2023/09/08 06:21:54;;;;;;;12.83;11.73;;;20.80;98.80;;;;;;5017364;28;20442;-42
2023/09/08 06:24:22;;;;;;;13.90;11.70;;;20.70;98.70;;;;;;5016498;28;20505;-42
2023/09/08 06:26:49;;;;;;;12.60;11.23;;;20.80;98.60;;;;;;5016492;28;20904;-40
2023/09/08 06:29:16;;;;;;;12.90;11.50;;;20.80;98.50;;;;;;5015822;28;20989;-40
2023/09/08 06:31:42;;;;;;;12.17;10.97;;;20.80;98.40;;;;;;5017845;28;20457;-40
2023/09/08 06:34:09;;;;;;;12.13;10.87;;;20.90;98.30;;;;;;5017834;28;20562;-41
2023/09/08 06:36:37;;;;;;;11.97;10.80;;;20.90;98.20;;;;;;5017801;28;20480;-39
2023/09/08 06:39:04;;;;;;;11.47;10.40;;;21.00;98.20;;;;;;5017876;28;20511;-39
2023/09/08 06:41:30;;;;;;;12.90;11.50;;;21.00;98.10;;;;;;5017601;28;20465;-39
2023/09/08 06:44:00;;;;;;;11.00;9.83;;;21.00;98.00;;;;;;5016705;28;20541;-38
2023/09/08 06:46:28;;;;;;;19.23;14.00;;;21.00;97.90;;;;;;5016897;28;20514;-40
2023/09/08 06:48:55;;;;;;;12.43;11.20;;;21.10;98.00;;;;;;5017845;28;20475;-43
2023/09/08 06:51:22;;;;;;;11.57;10.47;;;21.10;97.90;;;;;;5018702;28;20817;-40
2023/09/08 06:53:57;;;;;;;11.23;10.03;;;21.10;97.90;;;;;;5018856;28;20480;-38
2023/09/08 06:56:26;;;;;;;13.00;10.80;;;21.20;97.80;;;;;;5018909;28;20445;-40
2023/09/08 06:58:53;;;;;;;12.30;11.10;;;21.20;97.80;;;;;;5022194;28;20466;-39
2023/09/08 07:01:20;;;;;;;12.43;11.17;;;21.20;97.80;;;;;;5018090;28;20937;-41
2023/09/08 07:03:47;;;;;;;12.83;11.13;;;21.30;97.80;;;;;;5019112;28;20648;-39
2023/09/08 07:06:15;;;;;;;13.63;11.63;;;21.20;97.70;;;;;;5019664;28;21060;-37
2023/09/08 07:08:42;;;;;;;13.10;10.10;;;21.30;97.70;;;;;;5018908;28;20504;-40
2023/09/08 07:11:09;;;;;;;11.87;10.67;;;21.30;97.60;;;;;;5019391;28;20438;-40
2023/09/08 07:13:37;;;;;;;12.67;10.93;;;21.30;97.60;;;;;;5016797;28;20440;-40
2023/09/08 07:16:05;;;;;;;21.13;11.17;;;21.40;97.60;;;;;;5017741;28;20487;-44
2023/09/08 07:18:35;;;;;;;10.87;9.77;;;21.40;97.50;;;;;;5016250;28;20479;-43
2023/09/08 07:21:02;;;;;;;11.13;10.03;;;21.40;97.50;;;;;;5016252;28;20490;-39
2023/09/08 07:23:29;;;;;;;12.60;10.50;;;21.40;97.40;;;;;;5015482;28;20455;-39
2023/09/08 07:25:56;;;;;;;16.43;9.80;;;21.50;97.40;;;;;;5015513;28;20490;-41
2023/09/08 07:28:27;;;;;;;11.63;10.53;;;21.50;97.40;;;;;;5015741;28;20510;-40
2023/09/08 07:31:01;;;;;;;11.13;10.00;;;21.50;97.40;;;;;;5015004;28;20582;-41
2023/09/08 07:33:29;;;;;;;10.90;9.90;;;21.50;97.30;;;;;;5017465;28;20444;-41
2023/09/08 07:35:55;;;;;;;11.83;10.17;;;21.50;97.30;;;;;;5021474;28;20452;-40
2023/09/08 07:38:22;;;;;;;10.00;8.57;;;21.60;97.70;;;;;;5019811;28;20488;-39
2023/09/08 07:40:49;;;;;;;10.57;9.47;;;21.60;97.30;;;;;;5021567;28;20452;-38
2023/09/08 07:43:15;;;;;;;9.97;9.07;;;21.70;97.30;;;;;;5023705;28;20471;-39
2023/09/08 07:45:44;;;;;;;14.23;10.70;;;21.70;97.30;;;;;;5020726;28;20904;-39
2023/09/08 07:48:11;;;;;;;13.33;10.37;;;21.80;97.30;;;;;;5022712;28;20444;-41
2023/09/08 07:50:38;;;;;;;15.73;10.70;;;21.70;97.20;;;;;;5026500;28;20935;-38
2023/09/08 07:53:04;;;;;;;13.03;9.57;;;21.70;97.20;;;;;;5027169;28;20437;-40
2023/09/08 07:55:31;;;;;;;9.53;8.60;;;21.80;97.20;;;;;;5023400;28;20440;-39
2023/09/08 07:57:58;;;;;;;13.03;10.50;;;21.80;97.10;;;;;;5019983;28;20445;-39
2023/09/08 08:00:26;;;;;;;11.73;10.53;;;21.90;97.10;;;;;;5016328;28;20463;-36
2023/09/08 08:02:55;;;;;;;11.53;10.33;;;21.90;97.10;;;;;;5016463;28;20443;-39
2023/09/08 08:05:23;;;;;;;14.60;9.53;;;22.00;97.00;;;;;;5015090;28;20460;-39
2023/09/08 08:07:49;;;;;;;10.13;9.03;;;22.00;97.00;;;;;;5015443;28;20439;-38
2023/09/08 08:10:16;;;;;;;10.40;9.03;;;22.00;96.90;;;;;;5016638;28;20550;-38
2023/09/08 08:12:44;;;;;;;13.03;9.93;;;22.10;96.90;;;;;;5016005;28;20424;-40
2023/09/08 08:15:11;;;;;;;9.80;8.80;;;22.20;96.80;;;;;;5017386;28;20924;-39
2023/09/08 08:17:38;;;;;;;15.57;8.83;;;22.20;96.70;;;;;;5016011;28;20429;-36
2023/09/08 08:20:09;;;;;;;11.33;8.60;;;22.20;96.60;;;;;;5015745;28;20463;-41
2023/09/08 08:22:36;;;;;;;11.03;8.47;;;22.30;96.50;;;;;;5015255;28;20449;-40
2023/09/08 08:25:04;;;;;;;13.53;8.70;;;22.30;96.40;;;;;;5015433;28;20512;-40
2023/09/08 08:27:31;;;;;;;14.43;9.33;;;22.40;96.30;;;;;;5015560;28;20520;-40
2023/09/08 08:29:59;;;;;;;11.70;10.50;;;22.40;96.20;;;;;;5015467;28;20528;-39
2023/09/08 08:32:26;;;;;;;10.53;9.43;;;22.40;96.20;;;;;;5016000;28;20508;-39
2023/09/08 08:34:52;;;;;;;11.50;8.87;;;22.60;96.20;;;;;;5014888;28;20430;-40
2023/09/08 08:37:20;;;;;;;9.60;8.47;;;22.60;96.20;;;;;;5015760;28;20445;-45
2023/09/08 08:39:47;;;;;;;10.60;8.90;;;22.60;96.20;;;;;;5016162;28;20462;-42
2023/09/08 08:42:14;;;;;;;11.17;9.27;;;22.70;96.10;;;;;;5014494;28;20446;-40
2023/09/08 08:44:42;;;;;;;10.50;9.50;;;22.70;96.00;;;;;;5015802;28;20516;-39
2023/09/08 08:47:12;;;;;;;10.97;8.47;;;22.70;95.90;;;;;;5016403;28;20512;-39
2023/09/08 08:49:42;;;;;;;15.90;8.57;;;22.80;95.80;;;;;;5019226;28;20908;-40
2023/09/08 08:52:09;;;;;;;9.63;8.23;;;22.90;95.80;;;;;;5015797;28;20520;-40
2023/09/08 08:54:39;;;;;;;10.53;8.20;;;23.00;95.70;;;;;;5014423;28;20438;-41
2023/09/08 08:57:07;;;;;;;9.93;8.93;;;22.90;95.40;;;;;;5015252;28;20518;-40
2023/09/08 08:59:34;;;;;;;10.53;8.40;;;23.20;95.40;;;;;;5015570;28;20972;-42
2023/09/08 09:02:02;;;;;;;11.97;8.47;;;23.10;95.40;;;;;;5014962;28;20439;-40
2023/09/08 09:04:29;;;;;;;9.80;8.33;;;23.10;95.30;;;;;;5014857;28;20455;-39
2023/09/08 09:06:56;;;;;;;12.00;7.90;;;23.10;95.30;;;;;;5017743;28;20479;-40
2023/09/08 09:09:25;;;;;;;10.90;8.70;;;23.10;95.10;;;;;;5024367;28;20563;-39
2023/09/08 09:11:53;;;;;;;13.60;8.63;;;23.20;95.10;;;;;;5026397;28;20812;-40
2023/09/08 09:14:20;;;;;;;8.87;6.83;;;23.20;94.90;;;;;;5026977;28;20449;-40
2023/09/08 09:16:48;;;;;;;9.32;7.70;;;23.30;94.70;;;;;;5030508;28;20465;-40
2023/09/08 09:19:25;;;;;;;11.10;7.80;;;23.70;93.80;;;;;;5023876;28;20228;-39
2023/09/08 09:21:54;;;;;;;9.40;7.43;;;23.60;93.60;;;;;;5013647;28;20452;-38
2023/09/08 09:24:30;;;;;;;14.47;9.17;;;23.80;93.60;;;;;;5007310;28;20453;-42
2023/09/08 09:26:59;;;;;;;10.60;8.27;;;23.80;93.20;;;;;;5025336;28;20494;-41
2023/09/08 09:29:25;;;;;;;11.07;7.67;;;23.90;93.10;;;;;;5020195;28;20491;-38
2023/09/08 09:31:53;;;;;;;10.13;7.50;;;23.90;93.00;;;;;;5020652;28;20442;-44
2023/09/08 09:34:21;;;;;;;9.43;8.40;;;24.00;93.30;;;;;;5018952;28;20447;-40
2023/09/08 09:36:49;;;;;;;9.33;8.33;;;24.00;93.50;;;;;;5017028;28;20831;-40
2023/09/08 09:39:18;;;;;;;9.40;6.80;;;24.00;93.60;;;;;;4996654;28;20530;-39
2023/09/08 09:41:45;;;;;;;11.43;6.83;;;23.90;93.60;;;;;;4997716;28;20460;-40
2023/09/08 09:44:13;;;;;;;7.93;7.13;;;24.00;93.60;;;;;;5002170;28;20464;-39
2023/09/08 09:46:44;;;;;;;7.63;6.63;;;24.00;93.50;;;;;;5014510;28;20483;-40
2023/09/08 09:49:12;;;;;;;8.80;7.43;;;24.00;93.30;;;;;;4996613;28;20464;-38
2023/09/08 09:51:43;;;;;;;9.77;7.03;;;24.00;93.30;;;;;;4995599;28;20441;-42
2023/09/08 09:54:09;;;;;;;8.70;7.30;;;24.00;93.30;;;;;;5000345;28;20428;-39
2023/09/08 09:56:39;;;;;;;8.10;6.77;;;24.00;93.20;;;;;;5009277;28;20441;-40
2023/09/08 09:59:06;;;;;;;9.60;6.90;;;24.10;93.00;;;;;;5012825;28;20465;-39
2023/09/08 10:01:34;;;;;;;7.40;6.40;;;24.20;92.80;;;;;;5019492;28;20488;-41
2023/09/08 10:04:03;;;;;;;7.73;6.93;;;24.20;92.60;;;;;;5006369;28;20452;-40
2023/09/08 10:06:32;;;;;;;8.10;6.97;;;24.30;92.50;;;;;;5000740;28;20489;-40
2023/09/08 10:09:00;;;;;;;7.10;6.00;;;24.40;92.50;;;;;;5000052;28;20461;-42
2023/09/08 10:11:30;;;;;;;8.10;6.80;;;24.40;92.30;;;;;;5008457;28;20440;-42
2023/09/08 10:13:59;;;;;;;9.77;6.70;;;24.40;92.10;;;;;;5016473;28;20876;-40
2023/09/08 10:16:28;;;;;;;7.63;6.87;;;24.50;91.90;;;;;;5017857;28;20447;-38
2023/09/08 10:18:59;;;;;;;8.77;6.73;;;24.50;91.70;;;;;;5017987;28;20473;-43
2023/09/08 10:21:28;;;;;;;8.83;6.20;;;24.50;91.40;;;;;;5012056;28;20464;-40
2023/09/08 10:24:04;;;;;;;9.73;6.30;;;24.50;91.10;;;;;;5016631;28;20774;-42
2023/09/08 10:26:34;;;;;;;8.80;6.50;;;24.70;90.90;;;;;;5018057;28;21075;-40
2023/09/08 10:29:02;;;;;;;8.63;6.33;;;24.80;90.80;;;;;;5006405;28;20904;-40
2023/09/08 10:31:30;;;;;;;11.20;6.67;;;24.80;90.80;;;;;;4998920;28;20442;-39
2023/09/08 10:33:58;;;;;;;9.10;6.87;;;24.70;90.70;;;;;;4999202;28;20954;-39
2023/09/08 10:36:25;;;;;;;7.83;5.57;;;24.60;90.60;;;;;;4998752;28;20788;-39
2023/09/08 10:38:54;;;;;;;8.13;7.00;;;24.90;90.40;;;;;;4998427;28;20459;-42
2023/09/08 10:41:36;;;;;;;7.53;5.57;;;24.90;90.30;;;;;;5010477;28;20444;-40
2023/09/08 10:44:08;;;;;;;7.43;6.70;;;25.10;90.20;;;;;;5019246;28;20832;-40
2023/09/08 10:46:35;;;;;;;9.60;6.43;;;25.10;90.00;;;;;;5021797;28;20491;-39
2023/09/08 10:49:06;;;;;;;6.87;5.80;;;25.20;89.90;;;;;;5022850;28;20456;-41
2023/09/08 10:51:34;;;;;;;9.30;6.40;;;25.20;90.20;;;;;;5021353;28;20440;-43
2023/09/08 10:54:01;;;;;;;7.83;7.10;;;25.20;89.40;;;;;;5014008;28;20885;-39
2023/09/08 10:56:29;;;;;;;8.27;5.80;;;25.20;89.40;;;;;;5016081;28;20451;-41
2023/09/08 10:58:56;;;;;;;11.10;7.30;;;25.30;89.30;;;;;;5021102;28;20472;-41
2023/09/08 11:01:26;;;;;;;8.90;6.03;;;25.30;89.30;;;;;;5020405;28;20446;-40
2023/09/08 11:03:53;;;;;;;8.93;6.87;;;25.30;89.60;;;;;;4999439;28;20803;-40
2023/09/08 11:06:23;;;;;;;10.13;6.20;;;25.20;89.70;;;;;;4997582;28;20940;-41
2023/09/08 11:08:52;;;;;;;10.70;6.50;;;25.30;89.80;;;;;;4998980;28;20476;-38
2023/09/08 11:11:19;;;;;;;7.33;6.10;;;25.20;89.40;;;;;;4998265;28;20441;-39
2023/09/08 11:13:46;;;;;;;7.27;6.57;;;25.30;89.50;;;;;;4997994;28;20535;-41
2023/09/08 11:16:14;;;;;;;6.70;6.00;;;25.30;89.60;;;;;;5022694;28;20861;-39
2023/09/08 11:18:42;;;;;;;6.50;5.90;;;25.30;89.40;;;;;;5020090;28;20427;-39
2023/09/08 11:21:10;;;;;;;6.50;5.90;;;25.50;90.00;;;;;;5017536;28;20232;-40
2023/09/08 11:23:39;;;;;;;9.00;7.83;;;25.40;88.90;;;;;;5016794;28;20451;-41
2023/09/08 11:26:08;;;;;;;8.35;6.30;;;25.40;89.00;;;;;;5018539;28;20509;-38
2023/09/08 11:28:35;;;;;;;9.70;5.67;;;25.60;87.80;;;;;;5014331;28;20241;-40
2023/09/08 11:31:04;;;;;;;8.40;6.10;;;25.60;87.10;;;;;;4996392;28;20575;-39
2023/09/08 11:33:38;;;;;;;7.97;6.77;;;25.60;86.50;;;;;;4996941;28;20453;-41
2023/09/08 11:36:14;;;;;;;5.80;5.30;;;25.60;86.40;;;;;;4996223;28;20471;-41
2023/09/08 11:38:44;;;;;;;9.73;6.17;;;25.60;86.50;;;;;;4997269;28;20521;-40
2023/09/08 11:41:10;;;;;;;7.60;6.03;;;25.60;86.50;;;;;;4997654;28;20437;-40
2023/09/08 11:43:37;;;;;;;7.93;6.43;;;25.50;86.60;;;;;;4996155;28;20441;-41
2023/09/08 11:46:04;;;;;;;9.30;6.17;;;25.60;86.50;;;;;;4996752;28;20939;-40
2023/09/08 11:48:32;;;;;;;7.37;6.03;;;25.60;86.20;;;;;;4995676;28;20729;-41
2023/09/08 11:50:59;;;;;;;7.75;5.80;;;25.70;85.30;;;;;;4993604;28;20424;-42
2023/09/08 11:53:26;;;;;;;6.27;5.20;;;26.00;84.10;;;;;;4992153;28;20209;-43
2023/09/08 11:55:54;;;;;;;14.10;6.07;;;26.00;83.80;;;;;;4993889;28;20537;-45
2023/09/08 11:58:21;;;;;;;6.87;6.27;;;25.90;82.60;;;;;;4994129;28;20437;-50
2023/09/08 12:00:49;;;;;;;8.45;6.22;;;25.90;82.80;;;;;;5009398;28;20454;-47
2023/09/08 12:03:16;;;;;;;6.67;5.90;;;26.00;81.90;;;;;;5015432;28;20209;-42
2023/09/08 12:05:44;;;;;;;7.05;5.88;;;26.00;81.60;;;;;;5019535;28;20449;-41
2023/09/08 12:08:11;;;;;;;7.13;6.43;;;26.00;81.70;;;;;;5020326;28;20401;-40
2023/09/08 12:10:42;;;;;;;8.50;5.97;;;25.90;82.00;;;;;;5021856;28;20421;-40
2023/09/08 12:13:10;;;;;;;7.70;5.43;;;25.90;81.80;;;;;;5020669;28;20797;-39
2023/09/08 12:15:38;;;;;;;7.07;6.20;;;25.90;81.70;;;;;;5006531;28;20466;-41
2023/09/08 12:18:07;;;;;;;5.90;5.40;;;26.10;80.10;;;;;;5015472;28;20669;-42
2023/09/08 12:20:35;;;;;;;6.17;5.57;;;26.00;80.40;;;;;;5015809;28;20444;-41
2023/09/08 12:23:03;;;;;;;11.07;6.10;;;26.00;80.60;;;;;;5015081;28;20446;-43
2023/09/08 12:25:31;;;;;;;8.80;6.10;;;26.00;80.90;;;;;;5016335;28;20506;-43
2023/09/08 12:27:58;;;;;;;7.13;6.43;;;26.00;81.30;;;;;;5015338;28;20590;-42
2023/09/08 12:30:29;;;;;;;5.80;5.17;;;26.20;81.30;;;;;;5017261;28;20539;-40
2023/09/08 12:32:58;;;;;;;6.47;5.57;;;26.10;79.90;;;;;;5017569;28;20438;-42
2023/09/08 12:35:50;;;;;;;7.10;4.90;;;26.10;79.00;;;;;;5017741;28;20467;-48
2023/09/08 12:38:18;;;;;;;5.50;5.00;;;26.20;77.40;;;;;;5012925;28;20796;-47
2023/09/08 12:40:44;;;;;;;6.40;5.20;;;26.10;77.30;;;;;;5012400;28;20455;-47